Time;durP1;ratioP1;P1;durP2;ratioP2;P2;SDS_P1;SDS_P2;PMS_P1;PMS_P2;Temp;Humidity;BMP_temperature;BMP_pressure;BME280_temperature;BME280_humidity;BME280_pressure;Samples;Min_cycle;Max_cycle;Signal;HPM_P1;HPM_P2
2022/06/21 00:01:33;;;;;;;8.55;3.38;;;16.10;61.10;;;;;;5093777;28;20114;-69
2022/06/21 00:03:59;;;;;;;6.18;3.60;;;16.10;60.30;;;;;;5093772;28;20028;-69
2022/06/21 00:06:26;;;;;;;8.07;3.70;;;16.00;60.30;;;;;;5093621;28;20036;-69
2022/06/21 00:08:52;;;;;;;5.88;3.70;;;15.80;61.10;;;;;;5093658;28;20017;-69
2022/06/21 00:11:21;;;;;;;4.85;3.30;;;15.80;61.10;;;;;;5093448;28;20110;-69
2022/06/21 00:13:47;;;;;;;8.48;3.30;;;15.90;61.10;;;;;;5092755;28;20024;-69
2022/06/21 00:16:14;;;;;;;7.85;3.72;;;15.80;61.40;;;;;;5092575;28;20091;-69
2022/06/21 00:18:42;;;;;;;8.63;3.85;;;15.70;61.70;;;;;;5093647;28;20036;-69
2022/06/21 00:21:17;;;;;;;6.68;3.70;;;15.80;61.70;;;;;;5093518;28;20093;-69
2022/06/21 00:23:43;;;;;;;9.35;3.90;;;15.70;62.20;;;;;;5093466;28;20027;-69
2022/06/21 00:26:13;;;;;;;7.97;3.65;;;15.60;62.40;;;;;;5093448;28;20032;-69
2022/06/21 00:28:39;;;;;;;7.13;4.00;;;15.50;62.20;;;;;;5093383;28;20020;-69
2022/06/21 00:31:29;;;;;;;7.60;3.53;;;15.40;62.50;;;;;;5093197;28;20039;-69
2022/06/21 00:33:56;;;;;;;6.97;3.55;;;15.40;61.50;;;;;;5091728;28;20040;-69
2022/06/21 00:36:24;;;;;;;5.53;3.47;;;15.50;60.80;;;;;;5093351;28;20029;-69
2022/06/21 00:38:51;;;;;;;6.53;3.67;;;15.30;61.90;;;;;;5093305;28;20035;-69
2022/06/21 00:41:19;;;;;;;6.18;3.53;;;15.40;60.80;;;;;;5093300;28;20035;-69
2022/06/21 00:43:50;;;;;;;7.35;3.55;;;15.40;60.80;;;;;;5093231;28;20024;-69
2022/06/21 00:46:30;;;;;;;7.18;3.80;;;15.30;61.10;;;;;;5093190;28;20483;-69
2022/06/21 00:48:56;;;;;;;6.45;4.13;;;15.40;61.10;;;;;;5093346;28;20072;-70
2022/06/21 00:51:39;;;;;;;7.82;3.92;;;15.50;60.60;;;;;;5093171;28;20055;-69
2022/06/21 00:54:26;;;;;;;6.78;3.65;;;15.40;60.60;;;;;;5093185;28;20333;-69
2022/06/21 00:57:05;;;;;;;7.10;3.83;;;14.90;61.50;;;;;;5093111;28;20079;-70
2022/06/21 00:59:33;;;;;;;6.47;3.70;;;14.90;62.80;;;;;;5093131;28;20055;-69
2022/06/21 01:02:03;;;;;;;5.30;3.35;;;14.70;62.70;;;;;;5093055;28;20028;-69
2022/06/21 01:04:38;;;;;;;6.47;3.55;;;14.70;62.80;;;;;;5093069;28;20487;-69
2022/06/21 01:07:08;;;;;;;6.97;3.97;;;14.70;62.60;;;;;;5093020;28;20027;-69
2022/06/21 01:09:36;;;;;;;5.60;3.65;;;14.70;63.10;;;;;;5092991;28;20383;-69
2022/06/21 01:12:11;;;;;;;6.93;3.65;;;14.50;62.80;;;;;;5092790;28;20044;-69
2022/06/21 01:14:41;;;;;;;8.20;4.03;;;14.60;62.80;;;;;;5093109;28;20021;-69
2022/06/21 01:17:12;;;;;;;8.45;3.65;;;14.70;62.10;;;;;;5092889;28;20050;-69
2022/06/21 01:19:51;;;;;;;6.03;3.70;;;14.80;61.90;;;;;;5091968;28;20092;-69
2022/06/21 01:22:23;;;;;;;5.03;3.30;;;14.80;61.70;;;;;;5093073;28;20080;-68
2022/06/21 01:25:08;;;;;;;6.00;4.17;;;14.70;62.20;;;;;;5095173;28;20036;-69
2022/06/21 01:27:34;;;;;;;5.50;3.80;;;14.60;62.60;;;;;;5096938;28;20308;-69
2022/06/21 01:30:02;;;;;;;5.47;3.80;;;14.60;62.90;;;;;;5096645;28;20036;-69
2022/06/21 01:32:27;;;;;;;5.85;3.80;;;14.50;62.90;;;;;;5096607;28;20058;-69
2022/06/21 01:34:54;;;;;;;6.28;3.80;;;14.50;62.80;;;;;;5096588;28;20032;-69
2022/06/21 01:37:24;;;;;;;5.95;4.07;;;14.50;62.60;;;;;;5096572;28;20027;-69
2022/06/21 01:40:08;;;;;;;6.35;3.53;;;14.50;62.90;;;;;;5096690;28;20039;-69
2022/06/21 01:42:48;;;;;;;7.38;3.90;;;14.40;63.30;;;;;;5095465;28;20088;-69
2022/06/21 01:45:21;;;;;;;10.25;4.00;;;14.50;63.40;;;;;;5096403;28;20027;-69
2022/06/21 01:47:52;;;;;;;7.28;4.10;;;14.40;63.70;;;;;;5096424;28;20025;-69
2022/06/21 01:50:20;;;;;;;5.13;3.97;;;14.30;63.60;;;;;;5096378;28;20013;-69
2022/06/21 01:52:48;;;;;;;5.75;3.67;;;14.30;63.30;;;;;;5096298;28;20075;-69
2022/06/21 01:55:22;;;;;;;6.45;3.97;;;14.30;62.70;;;;;;5096278;28;20024;-69
2022/06/21 01:57:49;;;;;;;7.22;3.72;;;14.20;63.00;;;;;;5096244;28;20043;-69
2022/06/21 02:00:15;;;;;;;6.88;3.55;;;14.20;62.90;;;;;;5096169;28;20024;-69
2022/06/21 02:02:44;;;;;;;4.97;3.25;;;14.20;63.10;;;;;;5096105;28;20025;-69
2022/06/21 02:05:13;;;;;;;6.88;4.00;;;14.30;62.60;;;;;;5096133;28;20043;-70
2022/06/21 02:07:53;;;;;;;7.78;3.72;;;14.30;62.00;;;;;;5096024;28;20021;-69
2022/06/21 02:10:39;;;;;;;6.53;3.88;;;14.30;62.70;;;;;;5095865;28;20071;-69
2022/06/21 02:13:32;;;;;;;8.70;4.10;;;14.30;62.00;;;;;;5096046;28;20452;-69
2022/06/21 02:16:19;;;;;;;9.30;4.22;;;14.20;62.70;;;;;;5088169;28;20096;-69
2022/06/21 02:18:52;;;;;;;6.78;4.65;;;14.10;62.70;;;;;;5095892;28;20032;-68
2022/06/21 02:21:34;;;;;;;8.07;3.90;;;14.00;62.80;;;;;;5095811;28;20043;-69
2022/06/21 02:24:01;;;;;;;8.98;4.32;;;14.10;63.00;;;;;;5095771;28;20029;-69
2022/06/21 02:26:30;;;;;;;5.78;4.18;;;14.20;63.00;;;;;;5095600;28;20092;-69
2022/06/21 02:28:56;;;;;;;6.63;3.95;;;14.10;62.90;;;;;;5095558;28;20052;-69
2022/06/21 02:31:26;;;;;;;7.72;4.32;;;14.10;63.10;;;;;;5095618;28;20045;-69
2022/06/21 02:33:55;;;;;;;6.70;4.30;;;14.00;63.60;;;;;;5095673;28;20017;-69
2022/06/21 02:36:26;;;;;;;5.40;4.07;;;14.00;63.90;;;;;;5094456;28;20084;-69
2022/06/21 02:38:58;;;;;;;10.32;4.22;;;14.00;63.50;;;;;;5095470;28;20024;-69
2022/06/21 02:41:37;;;;;;;7.05;4.28;;;13.90;63.70;;;;;;5095451;28;20035;-69
2022/06/21 02:44:12;;;;;;;7.60;4.20;;;13.90;64.10;;;;;;5095509;28;20126;-69
2022/06/21 02:46:41;;;;;;;6.50;4.22;;;14.00;63.90;;;;;;5095295;28;20080;-69
2022/06/21 02:49:10;;;;;;;8.48;4.32;;;14.00;63.50;;;;;;5095258;28;20023;-69
2022/06/21 02:51:44;;;;;;;6.05;4.22;;;14.00;63.60;;;;;;5095205;28;20028;-69
2022/06/21 02:54:14;;;;;;;5.40;3.95;;;14.10;63.70;;;;;;5095378;28;20028;-69
2022/06/21 02:56:48;;;;;;;7.50;4.28;;;14.10;63.70;;;;;;5095192;28;20031;-69
2022/06/21 02:59:15;;;;;;;7.00;4.40;;;13.90;64.90;;;;;;5095164;28;20059;-69
2022/06/21 03:01:45;;;;;;;8.38;3.95;;;13.80;64.90;;;;;;5095022;28;20029;-69
2022/06/21 03:04:39;;;;;;;7.90;4.50;;;13.90;64.70;;;;;;5095244;28;20076;-69
2022/06/21 03:07:05;;;;;;;9.15;4.68;;;14.00;64.40;;;;;;5094865;28;20025;-69
2022/06/21 03:09:34;;;;;;;7.05;4.38;;;14.00;64.80;;;;;;5094855;28;20025;-69
2022/06/21 03:12:03;;;;;;;7.70;4.78;;;14.10;64.80;;;;;;5094582;28;20045;-69
2022/06/21 03:14:31;;;;;;;8.73;4.55;;;14.10;65.10;;;;;;5094741;28;20031;-69
2022/06/21 03:17:00;;;;;;;7.93;4.88;;;14.00;66.10;;;;;;5094697;28;20085;-69
2022/06/21 03:19:37;;;;;;;8.18;4.57;;;13.90;66.50;;;;;;5094681;28;20059;-69
2022/06/21 03:22:13;;;;;;;9.68;5.07;;;13.90;65.90;;;;;;5094678;28;20096;-69
2022/06/21 03:24:39;;;;;;;7.18;4.57;;;14.00;65.50;;;;;;5094607;28;20062;-69
2022/06/21 03:27:47;;;;;;;8.20;4.80;;;13.90;65.70;;;;;;5094405;28;20020;-69
2022/06/21 03:30:14;;;;;;;8.23;5.40;;;14.00;65.50;;;;;;5094403;28;20024;-69
2022/06/21 03:32:40;;;;;;;9.38;5.60;;;14.00;66.00;;;;;;5094378;28;20020;-69
2022/06/21 03:35:07;;;;;;;8.73;4.80;;;13.90;66.20;;;;;;5094347;28;20426;-69
2022/06/21 03:37:36;;;;;;;7.32;4.43;;;13.60;66.30;;;;;;5094272;28;20025;-68
2022/06/21 03:42:50;;;;;;;6.20;4.45;;;13.70;66.00;;;;;;5093635;28;20048;-69
2022/06/21 03:45:21;;;;;;;8.07;5.00;;;13.70;65.40;;;;;;5094051;28;20029;-69
2022/06/21 03:47:58;;;;;;;8.00;4.70;;;13.60;65.10;;;;;;5092851;28;20032;-69
2022/06/21 03:50:32;;;;;;;8.73;4.97;;;13.40;65.50;;;;;;5094083;28;20043;-69
2022/06/21 03:53:13;;;;;;;7.28;4.53;;;13.40;65.60;;;;;;5094127;28;20084;-69
2022/06/21 03:55:57;;;;;;;9.43;4.70;;;13.40;65.80;;;;;;5092921;28;20096;-69
2022/06/21 03:58:43;;;;;;;9.27;4.80;;;13.40;66.20;;;;;;5092965;28;20021;-69
2022/06/21 04:01:19;;;;;;;8.27;4.90;;;13.50;66.30;;;;;;5083051;28;20041;-69
2022/06/21 04:04:05;;;;;;;8.02;4.97;;;13.50;66.10;;;;;;5093957;28;20044;-69
2022/06/21 04:06:40;;;;;;;8.13;5.25;;;13.60;65.80;;;;;;5062751;28;20045;-69
2022/06/21 04:09:18;;;;;;;6.60;4.80;;;13.60;66.60;;;;;;5093801;28;20020;-69
2022/06/21 04:12:06;;;;;;;8.10;5.32;;;13.60;66.40;;;;;;5092418;28;20044;-69
2022/06/21 04:14:35;;;;;;;8.18;5.25;;;13.60;67.10;;;;;;5093693;28;20033;-69
2022/06/21 04:17:09;;;;;;;8.32;5.60;;;13.50;67.30;;;;;;5093558;28;20031;-69
2022/06/21 04:19:56;;;;;;;8.85;5.50;;;13.60;67.70;;;;;;5093697;28;20023;-69
2022/06/21 04:22:31;;;;;;;9.95;5.30;;;13.60;67.90;;;;;;5093641;28;20050;-69
2022/06/21 04:25:06;;;;;;;8.50;5.93;;;13.70;67.60;;;;;;5093443;28;20017;-69
2022/06/21 04:27:40;;;;;;;11.98;5.57;;;13.80;67.60;;;;;;5093418;28;20025;-69
2022/06/21 04:30:22;;;;;;;10.82;6.00;;;13.60;68.20;;;;;;5093604;28;20080;-69
2022/06/21 04:32:54;;;;;;;12.63;5.82;;;13.50;68.70;;;;;;5093404;28;20084;-69
2022/06/21 04:35:30;;;;;;;9.43;5.80;;;13.60;68.70;;;;;;5093425;28;20107;-69
2022/06/21 04:38:10;;;;;;;7.57;5.45;;;13.70;68.40;;;;;;5093364;28;20017;-69
2022/06/21 04:41:01;;;;;;;8.93;5.82;;;13.70;68.40;;;;;;5093314;28;20116;-69
2022/06/21 04:43:53;;;;;;;8.60;5.90;;;13.70;68.90;;;;;;5092793;28;20041;-69
2022/06/21 04:46:30;;;;;;;10.00;5.68;;;13.80;69.60;;;;;;5093192;28;20049;-69
2022/06/21 04:49:21;;;;;;;9.70;5.50;;;13.90;69.30;;;;;;5093359;28;20027;-69
2022/06/21 04:51:51;;;;;;;9.52;5.80;;;13.90;69.80;;;;;;5093190;28;20031;-69
2022/06/21 04:54:24;;;;;;;11.63;5.95;;;13.90;70.20;;;;;;5093199;28;20047;-69
2022/06/21 04:57:02;;;;;;;12.85;5.53;;;13.90;70.80;;;;;;5092118;28;20440;-69
2022/06/21 04:59:47;;;;;;;9.73;5.88;;;13.90;71.80;;;;;;5097056;28;20081;-69
2022/06/21 05:02:24;;;;;;;8.18;6.22;;;13.90;72.10;;;;;;5099812;28;20034;-69
2022/06/21 05:05:02;;;;;;;9.57;5.85;;;13.90;72.80;;;;;;5099764;28;20033;-69
2022/06/21 05:07:32;;;;;;;11.93;6.03;;;13.90;73.20;;;;;;5099693;28;20044;-69
2022/06/21 05:09:59;;;;;;;12.48;6.22;;;13.80;73.40;;;;;;5099734;28;20159;-69
2022/06/21 05:12:35;;;;;;;11.40;6.90;;;13.80;73.60;;;;;;5099511;28;20109;-69
2022/06/21 05:15:04;;;;;;;9.00;5.88;;;13.90;74.20;;;;;;5099623;28;20024;-69
2022/06/21 05:17:34;;;;;;;11.77;6.38;;;13.90;74.50;;;;;;5099735;28;20112;-69
2022/06/21 05:20:17;;;;;;;10.57;5.72;;;14.00;74.60;;;;;;5099564;28;20081;-69
2022/06/21 05:22:49;;;;;;;10.15;5.82;;;14.00;74.70;;;;;;5099611;28;20027;-69
2022/06/21 05:25:29;;;;;;;9.98;5.50;;;14.10;74.90;;;;;;5099639;28;20047;-69
2022/06/21 05:28:20;;;;;;;9.52;5.53;;;14.10;75.10;;;;;;5099572;28;20017;-69
2022/06/21 05:30:59;;;;;;;8.07;5.40;;;14.20;74.80;;;;;;5099524;28;20087;-67
2022/06/21 05:33:40;;;;;;;10.05;5.72;;;14.30;75.30;;;;;;5099531;28;20021;-67
2022/06/21 05:36:13;;;;;;;8.93;5.43;;;14.30;75.10;;;;;;5099609;28;20032;-67
2022/06/21 05:38:56;;;;;;;10.43;5.22;;;14.30;75.40;;;;;;5099451;28;20039;-67
2022/06/21 05:41:43;;;;;;;10.88;5.60;;;14.40;75.60;;;;;;5099433;28;20028;-67
2022/06/21 05:44:32;;;;;;;9.55;5.60;;;14.40;75.40;;;;;;5099416;28;20601;-67
2022/06/21 05:47:18;;;;;;;11.43;5.93;;;14.50;75.50;;;;;;5099435;28;20032;-67
2022/06/21 05:49:43;;;;;;;13.00;5.88;;;14.60;76.20;;;;;;5099504;28;20025;-67
2022/06/21 05:52:18;;;;;;;17.58;5.68;;;14.60;75.70;;;;;;5099252;28;20140;-67
2022/06/21 05:54:51;;;;;;;9.98;4.43;;;14.70;75.70;;;;;;5099342;28;20028;-67
2022/06/21 05:57:21;;;;;;;8.98;4.35;;;14.80;75.00;;;;;;5099450;28;20021;-67
2022/06/21 05:59:47;;;;;;;12.52;4.93;;;14.90;75.10;;;;;;5099231;28;20092;-67
2022/06/21 06:02:27;;;;;;;8.60;5.10;;;14.90;74.90;;;;;;5099328;28;20025;-67
2022/06/21 06:04:59;;;;;;;11.10;4.85;;;15.00;74.40;;;;;;5099206;28;20036;-67
2022/06/21 06:07:49;;;;;;;10.52;5.18;;;15.10;74.10;;;;;;5099249;28;20360;-67
2022/06/21 06:10:17;;;;;;;8.73;4.50;;;15.20;74.10;;;;;;5097309;28;20028;-69
2022/06/21 06:12:46;;;;;;;7.15;4.25;;;15.20;73.80;;;;;;5096003;28;20028;-68
2022/06/21 06:15:20;;;;;;;9.18;4.82;;;15.20;73.20;;;;;;5095917;28;20070;-69
2022/06/21 06:17:57;;;;;;;12.65;4.63;;;15.30;73.00;;;;;;5095859;28;20020;-69
2022/06/21 06:20:36;;;;;;;9.68;4.50;;;15.30;73.30;;;;;;5095834;28;20063;-69
2022/06/21 06:23:26;;;;;;;6.63;3.75;;;15.30;72.90;;;;;;5095922;28;20035;-69
2022/06/21 06:26:12;;;;;;;6.13;3.78;;;15.30;72.60;;;;;;5095853;28;20021;-69
2022/06/21 06:28:51;;;;;;;8.63;3.95;;;15.40;72.50;;;;;;5095709;28;20052;-69
2022/06/21 06:31:35;;;;;;;9.82;4.20;;;15.50;72.50;;;;;;5094667;28;20017;-69
2022/06/21 06:34:07;;;;;;;9.60;4.50;;;15.50;72.70;;;;;;5095595;28;20032;-69
2022/06/21 06:36:42;;;;;;;10.17;4.97;;;15.50;72.20;;;;;;5095560;28;20025;-69
2022/06/21 06:39:26;;;;;;;12.98;4.90;;;15.50;73.00;;;;;;5095546;28;20251;-68
2022/06/21 06:42:13;;;;;;;7.82;4.20;;;15.60;72.40;;;;;;5095486;28;20043;-69
2022/06/21 06:44:41;;;;;;;7.30;4.20;;;15.60;71.90;;;;;;5095531;28;20035;-69
2022/06/21 06:47:28;;;;;;;8.23;3.67;;;15.60;71.70;;;;;;5095258;28;20024;-68
2022/06/21 06:50:23;;;;;;;8.57;3.60;;;15.80;70.80;;;;;;5095473;28;20025;-69
2022/06/21 06:52:57;;;;;;;9.35;3.65;;;15.80;70.30;;;;;;5095234;28;20017;-69
2022/06/21 06:55:40;;;;;;;6.82;3.25;;;15.80;71.10;;;;;;5095115;28;20058;-69
2022/06/21 06:58:33;;;;;;;9.38;4.03;;;15.90;70.30;;;;;;5095036;28;20028;-69
2022/06/21 07:01:03;;;;;;;6.75;3.33;;;15.90;69.80;;;;;;5095229;28;20586;-69
2022/06/21 07:03:38;;;;;;;5.22;2.80;;;15.90;69.70;;;;;;5095059;28;20043;-69
2022/06/21 07:06:16;;;;;;;9.88;3.65;;;16.00;69.90;;;;;;5094929;28;20028;-69
2022/06/21 07:08:46;;;;;;;4.30;2.72;;;16.00;70.20;;;;;;5094966;28;20032;-68
2022/06/21 07:11:43;;;;;;;8.52;2.60;;;16.10;68.60;;;;;;5094822;28;20113;-69
2022/06/21 07:14:18;;;;;;;5.95;2.90;;;16.20;69.20;;;;;;5091650;28;20088;-69
2022/06/21 07:16:44;;;;;;;8.13;3.38;;;16.30;67.80;;;;;;5094780;28;20087;-68
2022/06/21 07:19:11;;;;;;;7.95;3.40;;;16.30;68.40;;;;;;5094713;28;20025;-69
2022/06/21 07:21:38;;;;;;;7.82;3.08;;;16.40;68.20;;;;;;5094140;28;20031;-69
2022/06/21 07:24:12;;;;;;;5.78;2.70;;;16.50;68.20;;;;;;5093495;28;20036;-69
2022/06/21 07:26:47;;;;;;;8.73;2.92;;;16.60;67.70;;;;;;5094519;28;20024;-69
2022/06/21 07:29:24;;;;;;;7.30;2.42;;;16.60;67.80;;;;;;5094569;28;20072;-69
2022/06/21 07:31:56;;;;;;;5.97;2.33;;;16.60;67.50;;;;;;5094565;28;20024;-69
2022/06/21 07:34:25;;;;;;;9.13;2.75;;;16.70;67.20;;;;;;5094465;28;20055;-68
2022/06/21 07:36:59;;;;;;;7.13;2.30;;;16.70;66.80;;;;;;5094314;28;20025;-69
2022/06/21 07:39:40;;;;;;;4.10;1.98;;;16.80;66.40;;;;;;5094425;28;20016;-68
2022/06/21 07:42:22;;;;;;;4.97;1.98;;;16.90;65.70;;;;;;5094392;28;20028;-69
2022/06/21 07:44:55;;;;;;;8.02;2.72;;;17.00;66.00;;;;;;5094217;28;20017;-68
2022/06/21 07:47:44;;;;;;;8.23;2.55;;;17.20;66.10;;;;;;5094044;28;20024;-68
2022/06/21 07:50:20;;;;;;;3.95;2.17;;;17.30;65.60;;;;;;5094165;28;20031;-69
2022/06/21 07:53:01;;;;;;;6.53;2.15;;;17.30;64.10;;;;;;5094054;28;20044;-68
2022/06/21 07:56:05;;;;;;;5.75;1.83;;;17.20;63.80;;;;;;5094022;28;20021;-68
2022/06/21 07:59:00;;;;;;;7.32;1.98;;;17.30;63.70;;;;;;5080686;28;20111;-69
2022/06/21 08:07:07;;;;;;;4.38;1.83;;;17.40;63.70;;;;;;5093882;28;20047;-68
2022/06/21 08:09:47;;;;;;;4.60;2.20;;;17.40;62.80;;;;;;5093722;28;20020;-69
2022/06/21 08:12:13;;;;;;;5.47;2.45;;;17.50;62.70;;;;;;5093491;28;20043;-69
2022/06/21 08:14:40;;;;;;;4.38;1.95;;;17.50;62.10;;;;;;5093642;28;20051;-69
2022/06/21 08:17:08;;;;;;;6.38;2.30;;;17.50;62.40;;;;;;5092574;28;20036;-69
2022/06/21 08:19:46;;;;;;;5.13;2.15;;;17.50;62.90;;;;;;5093571;28;20111;-68
2022/06/21 08:22:24;;;;;;;9.23;2.47;;;17.60;62.70;;;;;;5093526;28;20025;-68
2022/06/21 08:24:56;;;;;;;5.80;2.22;;;17.60;62.00;;;;;;5093545;28;20025;-69
2022/06/21 08:27:38;;;;;;;4.53;2.25;;;17.70;62.00;;;;;;5093363;28;20020;-68
2022/06/21 08:30:04;;;;;;;;;;;17.70;62.70;;;;;;5093914;28;20016;-68
2022/06/21 08:32:32;;;;;;;5.00;2.60;;;17.70;63.20;;;;;;5093418;28;19926;-68
2022/06/21 08:35:06;;;;;;;6.75;2.88;;;17.80;62.20;;;;;;5091549;28;20016;-69
2022/06/21 08:37:36;;;;;;;4.63;2.40;;;17.80;63.30;;;;;;5093313;28;20022;-69
2022/06/21 08:40:33;;;;;;;7.15;2.72;;;17.90;62.70;;;;;;5093475;28;20047;-69
2022/06/21 08:43:20;;;;;;;4.63;2.65;;;17.90;62.60;;;;;;5093339;28;20024;-69
2022/06/21 08:45:54;;;;;;;5.97;2.10;;;17.90;61.60;;;;;;5093320;28;20024;-69
2022/06/21 08:48:58;;;;;;;5.40;2.20;;;18.00;62.30;;;;;;5092213;28;20032;-68
2022/06/21 08:52:01;;;;;;;4.18;2.35;;;18.00;61.40;;;;;;5093189;28;20032;-69
2022/06/21 08:54:56;;;;;;;5.53;2.80;;;18.10;60.80;;;;;;5093292;28;20025;-69
2022/06/21 08:57:42;;;;;;;6.88;2.42;;;18.20;60.80;;;;;;5093318;28;20494;-68
2022/06/21 09:00:26;;;;;;;3.50;2.40;;;18.50;62.00;;;;;;5093151;28;20035;-69
2022/06/21 09:03:10;;;;;;;7.45;2.55;;;18.70;60.30;;;;;;5093117;28;20087;-69
2022/06/21 09:06:05;;;;;;;5.07;2.15;;;18.80;60.10;;;;;;5093038;28;20035;-69
2022/06/21 09:09:12;;;;;;;7.10;2.70;;;18.80;57.90;;;;;;5092112;28;20032;-69
2022/06/21 09:11:47;;;;;;;4.63;2.28;;;18.60;56.90;;;;;;5092896;28;20040;-69
2022/06/21 09:14:24;;;;;;;5.20;2.50;;;18.60;58.30;;;;;;5092999;28;20028;-69
2022/06/21 09:17:44;;;;;;;4.10;2.38;;;18.70;58.80;;;;;;5092946;28;20024;-69
2022/06/21 09:20:25;;;;;;;5.15;2.50;;;18.80;58.10;;;;;;5031289;28;20513;-69
2022/06/21 09:23:06;;;;;;;6.57;2.78;;;18.80;58.90;;;;;;5092959;28;20028;-69
2022/06/21 09:25:56;;;;;;;7.05;2.42;;;18.90;58.20;;;;;;5092833;28;20035;-69
2022/06/21 09:28:41;;;;;;;4.97;2.75;;;18.70;57.20;;;;;;5092807;28;20024;-69
2022/06/21 09:31:31;;;;;;;5.35;2.20;;;18.70;59.00;;;;;;5091885;28;20025;-69
2022/06/21 09:33:59;;;;;;;4.55;2.35;;;18.80;59.10;;;;;;5092853;28;20025;-69
2022/06/21 09:37:03;;;;;;;3.60;2.22;;;18.90;59.90;;;;;;5092765;28;20021;-68
2022/06/21 09:39:43;;;;;;;5.95;2.30;;;18.90;58.80;;;;;;5084341;28;20516;-69
2022/06/21 09:42:31;;;;;;;7.97;2.65;;;18.80;58.70;;;;;;5092855;28;20021;-69
2022/06/21 09:45:33;;;;;;;6.07;2.30;;;18.80;57.80;;;;;;5093506;28;20025;-69
2022/06/21 09:48:05;;;;;;;4.80;2.08;;;18.90;58.40;;;;;;5096463;28;20063;-69
2022/06/21 09:50:52;;;;;;;3.53;2.15;;;19.00;58.30;;;;;;5096465;28;20084;-69
2022/06/21 09:53:27;;;;;;;5.13;2.33;;;19.20;59.10;;;;;;5096417;28;20039;-69
2022/06/21 09:56:26;;;;;;;6.30;2.70;;;19.30;57.10;;;;;;5096348;28;20028;-69
2022/06/21 09:59:27;;;;;;;7.35;2.30;;;19.40;58.20;;;;;;5096216;28;20044;-69
2022/06/21 10:02:04;;;;;;;7.43;1.92;;;19.70;57.40;;;;;;5093050;28;20040;-69
2022/06/21 10:04:45;;;;;;;4.60;1.77;;;19.90;56.80;;;;;;5096263;28;20025;-69
2022/06/21 10:07:16;;;;;;;3.08;1.20;;;20.00;55.20;;;;;;5096057;28;20025;-69
2022/06/21 10:09:52;;;;;;;2.47;1.45;;;20.20;55.10;;;;;;5096041;28;20072;-69
2022/06/21 10:12:37;;;;;;;3.15;1.35;;;20.30;55.00;;;;;;5095849;28;20047;-69
2022/06/21 10:15:14;;;;;;;5.07;1.45;;;20.30;53.20;;;;;;5096027;28;20025;-69
2022/06/21 10:17:54;;;;;;;3.58;1.40;;;20.30;51.00;;;;;;5095923;28;20040;-69
2022/06/21 10:20:30;;;;;;;4.25;1.90;;;20.10;52.00;;;;;;5095918;28;20021;-69
2022/06/21 10:23:24;;;;;;;4.25;2.30;;;19.90;50.90;;;;;;5095949;28;20043;-69
2022/06/21 10:26:19;;;;;;;2.78;1.00;;;19.90;52.60;;;;;;5095735;28;20029;-69
2022/06/21 10:28:59;;;;;;;4.60;1.45;;;19.80;49.90;;;;;;5095650;28;20020;-69
2022/06/21 10:32:03;;;;;;;3.00;1.40;;;19.90;53.00;;;;;;5095668;28;20063;-69
2022/06/21 10:34:52;;;;;;;3.95;1.60;;;20.10;54.10;;;;;;5095629;28;20044;-69
2022/06/21 10:37:44;;;;;;;5.75;1.52;;;20.20;53.00;;;;;;5095618;28;20084;-69
2022/06/21 10:40:30;;;;;;;5.85;1.50;;;20.30;52.60;;;;;;5094567;28;20029;-69
2022/06/21 10:43:05;;;;;;;5.70;1.40;;;20.30;51.60;;;;;;5095047;28;20082;-69
2022/06/21 10:45:53;;;;;;;5.00;1.10;;;20.30;51.90;;;;;;5095421;28;20036;-68
2022/06/21 10:48:19;;;;;;;2.53;1.20;;;20.30;51.70;;;;;;5095418;28;20020;-69
2022/06/21 10:51:08;;;;;;;10.88;1.60;;;20.30;52.20;;;;;;5095329;28;20017;-69
2022/06/21 10:54:00;;;;;;;4.53;1.52;;;20.50;51.30;;;;;;5095429;28;20025;-69
2022/06/21 10:57:09;;;;;;;2.03;1.02;;;20.40;50.30;;;;;;5065836;28;20084;-69
2022/06/21 11:02:59;;;;;;;1.98;1.30;;;20.50;51.10;;;;;;5095269;28;20027;-69
2022/06/21 11:05:55;;;;;;;2.38;1.05;;;20.70;52.00;;;;;;5093921;28;20044;-69
2022/06/21 11:08:45;;;;;;;4.55;1.80;;;20.80;52.50;;;;;;5094993;28;20049;-69
2022/06/21 11:11:17;;;;;;;3.05;1.40;;;20.90;51.70;;;;;;5094835;28;20094;-69
2022/06/21 11:14:06;;;;;;;3.05;1.48;;;20.80;50.80;;;;;;5095010;28;20074;-69
2022/06/21 11:16:47;;;;;;;4.05;1.27;;;20.70;51.10;;;;;;5094830;28;20039;-69
2022/06/21 11:19:47;;;;;;;5.72;1.83;;;20.70;51.70;;;;;;5094788;28;20028;-69
2022/06/21 11:22:21;;;;;;;3.53;1.40;;;20.60;50.40;;;;;;5094722;28;20081;-69
2022/06/21 11:24:56;;;;;;;2.90;1.50;;;20.40;51.10;;;;;;5094687;28;20039;-69
2022/06/21 11:27:45;;;;;;;4.72;1.85;;;20.40;51.10;;;;;;5094552;28;20021;-69
2022/06/21 11:30:36;;;;;;;5.10;1.67;;;20.30;50.80;;;;;;5086173;28;20047;-69
2022/06/21 11:33:18;;;;;;;5.05;1.73;;;20.40;49.40;;;;;;5094552;28;20048;-69
2022/06/21 11:35:51;;;;;;;5.22;1.20;;;20.40;50.30;;;;;;5094545;28;20025;-69
2022/06/21 11:38:46;;;;;;;2.67;1.05;;;20.30;48.70;;;;;;5094359;28;20020;-69
2022/06/21 11:44:42;;;;;;;5.15;1.63;;;20.40;50.20;;;;;;5094362;28;20054;-69
2022/06/21 11:47:11;;;;;;;4.85;1.30;;;20.40;50.50;;;;;;5094158;28;20471;-69
2022/06/21 11:49:48;;;;;;;4.60;1.42;;;20.50;51.00;;;;;;5094158;28;20025;-69
2022/06/21 11:52:51;;;;;;;3.75;1.20;;;20.50;52.30;;;;;;5093131;28;20025;-69
2022/06/21 11:55:51;;;;;;;3.67;1.45;;;20.70;51.50;;;;;;5094036;28;20051;-69
2022/06/21 11:58:38;;;;;;;2.85;1.40;;;20.80;51.60;;;;;;5094008;28;20038;-69
2022/06/21 12:01:34;;;;;;;3.00;1.35;;;20.90;51.00;;;;;;5094063;28;20047;-69
2022/06/21 12:04:38;;;;;;;4.38;2.00;;;21.00;50.80;;;;;;5093976;28;20028;-69
2022/06/21 12:07:23;;;;;;;3.42;1.27;;;21.10;50.10;;;;;;5093734;28;20027;-69
2022/06/21 12:09:54;;;;;;;3.92;1.40;;;21.00;51.30;;;;;;5093625;28;20047;-69
2022/06/21 12:13:00;;;;;;;3.65;1.30;;;20.90;48.90;;;;;;5093765;28;20044;-69
2022/06/21 12:15:44;;;;;;;3.25;1.30;;;20.80;51.90;;;;;;5093791;28;20047;-69
2022/06/21 12:18:21;;;;;;;2.97;1.30;;;20.80;50.60;;;;;;5093624;28;20028;-69
2022/06/21 12:20:52;;;;;;;3.97;1.40;;;20.70;50.50;;;;;;5093739;28;20024;-69
2022/06/21 12:23:41;;;;;;;4.60;1.70;;;20.70;51.50;;;;;;5092614;28;20028;-69
2022/06/21 12:26:12;;;;;;;4.60;1.63;;;20.80;50.60;;;;;;5093491;28;20080;-69
2022/06/21 12:28:39;;;;;;;4.60;1.60;;;20.80;51.10;;;;;;5093453;28;20021;-69
2022/06/21 12:31:34;;;;;;;4.53;1.88;;;20.80;51.00;;;;;;5093419;28;20360;-69
2022/06/21 12:34:07;;;;;;;3.33;1.30;;;20.70;50.50;;;;;;5093423;28;20025;-69
2022/06/21 12:36:47;;;;;;;4.95;1.63;;;20.70;50.70;;;;;;5093402;28;20029;-69
2022/06/21 12:39:45;;;;;;;4.50;1.42;;;20.70;51.50;;;;;;5093363;28;20047;-69
2022/06/21 12:42:49;;;;;;;3.60;1.30;;;20.80;51.60;;;;;;5082465;28;20037;-69
2022/06/21 12:45:23;;;;;;;4.20;1.20;;;20.90;50.10;;;;;;5093244;28;20473;-69
2022/06/21 12:48:12;;;;;;;2.88;1.40;;;20.90;50.30;;;;;;5093407;28;20044;-69
2022/06/21 12:50:47;;;;;;;4.40;1.70;;;20.90;50.10;;;;;;5093421;28;20026;-69
2022/06/21 12:53:56;;;;;;;3.67;1.48;;;21.00;50.50;;;;;;5093184;28;20028;-69
2022/06/21 12:56:50;;;;;;;4.47;1.40;;;21.10;49.50;;;;;;5092164;28;20029;-69
2022/06/21 12:59:44;;;;;;;2.30;1.30;;;21.10;50.80;;;;;;5093321;28;20055;-69
2022/06/21 13:02:24;;;;;;;3.92;1.17;;;21.20;50.60;;;;;;5082175;28;20041;-69
2022/06/21 13:04:56;;;;;;;3.13;1.02;;;21.40;50.60;;;;;;5092102;28;20037;-69
2022/06/21 13:07:48;;;;;;;4.22;1.15;;;21.70;50.00;;;;;;5092110;28;20039;-69
2022/06/21 13:10:23;;;;;;;4.47;1.20;;;21.90;47.00;;;;;;5092923;28;20029;-69
2022/06/21 13:12:57;;;;;;;5.05;1.30;;;22.00;47.70;;;;;;5093164;28;20024;-69
2022/06/21 13:15:58;;;;;;;4.35;1.20;;;22.20;47.70;;;;;;5092960;28;20088;-68
2022/06/21 13:18:38;;;;;;;4.35;1.33;;;22.30;46.30;;;;;;5060753;28;20058;-68
2022/06/21 13:21:35;;;;;;;5.35;1.50;;;22.30;45.90;;;;;;5095824;28;20020;-69
2022/06/21 13:24:59;;;;;;;3.72;1.50;;;22.30;46.00;;;;;;5092199;28;20040;-69
2022/06/21 13:27:49;;;;;;;4.22;1.38;;;22.10;45.70;;;;;;5072090;28;20067;-68
2022/06/21 13:30:31;;;;;;;2.90;1.33;;;22.10;47.40;;;;;;5097036;28;20475;-69
2022/06/21 13:33:22;;;;;;;7.60;1.65;;;21.90;45.10;;;;;;5096854;28;20025;-68
2022/06/21 13:35:56;;;;;;;3.33;1.45;;;21.80;46.50;;;;;;5095635;28;20092;-68
2022/06/21 13:38:29;;;;;;;3.22;1.35;;;21.80;45.20;;;;;;5096700;28;20021;-68
2022/06/21 13:42:37;;;;;;;7.18;1.30;;;21.70;46.30;;;;;;5096840;28;20051;-68
2022/06/21 13:44:18;;;;;;;1.73;1.30;;;21.60;46.60;;;;;;5096581;28;20056;-68
2022/06/21 13:46:51;;;;;;;3.90;1.20;;;21.80;47.10;;;;;;5096497;28;20028;-68
2022/06/21 13:49:30;;;;;;;3.13;1.25;;;22.00;47.40;;;;;;5096622;28;20019;-69
2022/06/21 13:52:12;;;;;;;2.63;1.10;;;22.10;47.10;;;;;;5096467;28;20028;-68
2022/06/21 13:54:58;;;;;;;4.20;1.30;;;22.10;47.60;;;;;;5096428;28;20081;-68
2022/06/21 13:57:52;;;;;;;2.65;1.50;;;22.10;45.50;;;;;;5096354;28;20021;-68
2022/06/21 14:00:30;;;;;;;4.50;1.40;;;22.10;46.50;;;;;;5096283;28;20032;-68
2022/06/21 14:03:06;;;;;;;7.30;1.38;;;22.00;45.60;;;;;;5096294;28;20031;-68